<?xml version='1.0' encoding='UTF-8'?><gpx version="1.1" creator="JPX - https://github.com/jenetics/jpx" xmlns="http://www.topografix.com/GPX/1/1"><trk><trkseg><trkpt lat="42.4874083" lon="12.3816448"><ele>77.0</ele><time>2026-04-25T08:12:48.91Z</time></trkpt><trkpt lat="42.4873675" lon="12.3815688"><ele>77.0</ele><time>2026-04-25T08:12:49.909Z</time></trkpt><trkpt lat="42.4873345" lon="12.3814325"><ele>77.0</ele><time>2026-04-25T08:12:51.911Z</time></trkpt><trkpt lat="42.48727" lon="12.3812979"><ele>77.0</ele><time>2026-04-25T08:12:53.91Z</time></trkpt><trkpt lat="42.4872237" lon="12.3811681"><ele>77.0</ele><time>2026-04-25T08:12:55.909Z</time></trkpt><trkpt lat="42.4871541" lon="12.3810592"><ele>76.5</ele><time>2026-04-25T08:12:57.908Z</time></trkpt><trkpt lat="42.4870524" lon="12.3809703"><ele>76.0</ele><time>2026-04-25T08:12:59.909Z</time></trkpt><trkpt lat="42.4869409" lon="12.3809094"><ele>75.5</ele><time>2026-04-25T08:13:01.91Z</time></trkpt><trkpt lat="42.4868845" lon="12.3808667"><ele>75.0</ele><time>2026-04-25T08:13:02.908Z</time></trkpt><trkpt lat="42.4868289" lon="12.3808117"><ele>74.5</ele><time>2026-04-25T08:13:03.908Z</time></trkpt><trkpt lat="42.4867695" lon="12.3807505"><ele>74.0</ele><time>2026-04-25T08:13:04.908Z</time></trkpt><trkpt lat="42.4867183" lon="12.3806956"><ele>74.0</ele><time>2026-04-25T08:13:05.909Z</time></trkpt><trkpt lat="42.4866113" lon="12.3805984"><ele>74.0</ele><time>2026-04-25T08:13:07.908Z</time></trkpt><trkpt lat="42.4865093" lon="12.3805145"><ele>74.0</ele><time>2026-04-25T08:13:09.91Z</time></trkpt><trkpt lat="42.4864206" lon="12.3804127"><ele>74.0</ele><time>2026-04-25T08:13:11.908Z</time></trkpt><trkpt lat="42.4863493" lon="12.3803057"><ele>73.8</ele><time>2026-04-25T08:13:13.909Z</time></trkpt><trkpt lat="42.4862804" lon="12.3802022"><ele>73.60000000000001</ele><time>2026-04-25T08:13:15.91Z</time></trkpt><trkpt lat="42.4862007" lon="12.3801097"><ele>73.4</ele><time>2026-04-25T08:13:17.909Z</time></trkpt><trkpt lat="42.4861196" lon="12.3799989"><ele>73.2</ele><time>2026-04-25T08:13:19.908Z</time></trkpt><trkpt lat="42.4860425" lon="12.379874"><ele>73.0</ele><time>2026-04-25T08:13:21.909Z</time></trkpt><trkpt lat="42.4859733" lon="12.379753"><ele>73.2</ele><time>2026-04-25T08:13:23.91Z</time></trkpt><trkpt lat="42.4859099" lon="12.3796281"><ele>73.4</ele><time>2026-04-25T08:13:25.91Z</time></trkpt><trkpt lat="42.4858491" lon="12.3795039"><ele>73.60000000000001</ele><time>2026-04-25T08:13:27.909Z</time></trkpt><trkpt lat="42.4858039" lon="12.3793823"><ele>73.8</ele><time>2026-04-25T08:13:29.908Z</time></trkpt><trkpt lat="42.485776" lon="12.3792828"><ele>74.0</ele><time>2026-04-25T08:13:31.909Z</time></trkpt><trkpt lat="42.4857536" lon="12.3791972"><ele>74.0</ele><time>2026-04-25T08:13:34.909Z</time></trkpt></trkseg></trk></gpx>